sensor_id;sensor_type;location;lat;lon;timestamp;P1;durP1;ratioP1;P2;durP2;ratioP2
22924;SDS011;11628;51.072;3.712;2023-05-15T00:01:17;38.60;;;33.00;;
22924;SDS011;11628;51.072;3.712;2023-05-15T00:03:43;39.10;;;33.05;;
22924;SDS011;11628;51.072;3.712;2023-05-15T00:06:08;39.25;;;34.95;;
22924;SDS011;11628;51.072;3.712;2023-05-15T00:08:34;38.80;;;33.08;;
22924;SDS011;11628;51.072;3.712;2023-05-15T00:11:00;41.15;;;36.03;;
22924;SDS011;11628;51.072;3.712;2023-05-15T00:13:25;42.03;;;36.65;;
22924;SDS011;11628;51.072;3.712;2023-05-15T00:15:51;40.97;;;36.50;;
22924;SDS011;11628;51.072;3.712;2023-05-15T00:18:16;42.97;;;36.85;;
22924;SDS011;11628;51.072;3.712;2023-05-15T00:20:42;41.00;;;36.55;;
22924;SDS011;11628;51.072;3.712;2023-05-15T00:23:08;42.15;;;37.55;;
22924;SDS011;11628;51.072;3.712;2023-05-15T00:25:34;45.90;;;38.28;;
22924;SDS011;11628;51.072;3.712;2023-05-15T00:27:59;44.08;;;38.75;;
22924;SDS011;11628;51.072;3.712;2023-05-15T00:30:25;44.45;;;38.50;;
22924;SDS011;11628;51.072;3.712;2023-05-15T00:32:50;44.88;;;38.67;;
22924;SDS011;11628;51.072;3.712;2023-05-15T00:35:16;44.45;;;38.70;;
22924;SDS011;11628;51.072;3.712;2023-05-15T00:37:42;48.55;;;38.97;;
22924;SDS011;11628;51.072;3.712;2023-05-15T00:40:08;46.88;;;40.00;;
22924;SDS011;11628;51.072;3.712;2023-05-15T00:42:36;49.45;;;39.50;;
22924;SDS011;11628;51.072;3.712;2023-05-15T00:45:03;44.65;;;39.20;;
22924;SDS011;11628;51.072;3.712;2023-05-15T00:47:32;51.20;;;40.40;;
22924;SDS011;11628;51.072;3.712;2023-05-15T00:49:59;50.13;;;42.13;;
22924;SDS011;11628;51.072;3.712;2023-05-15T00:52:26;47.53;;;41.65;;
22924;SDS011;11628;51.072;3.712;2023-05-15T00:54:52;49.55;;;42.10;;
22924;SDS011;11628;51.072;3.712;2023-05-15T00:57:18;52.25;;;43.25;;
22924;SDS011;11628;51.072;3.712;2023-05-15T00:59:45;53.38;;;43.08;;
22924;SDS011;11628;51.072;3.712;2023-05-15T01:02:13;51.97;;;43.17;;
22924;SDS011;11628;51.072;3.712;2023-05-15T01:04:41;52.35;;;44.63;;
22924;SDS011;11628;51.072;3.712;2023-05-15T01:07:06;54.40;;;44.88;;
22924;SDS011;11628;51.072;3.712;2023-05-15T01:09:32;58.35;;;46.90;;
22924;SDS011;11628;51.072;3.712;2023-05-15T01:11:59;54.47;;;46.00;;
22924;SDS011;11628;51.072;3.712;2023-05-15T01:14:28;56.42;;;47.22;;
22924;SDS011;11628;51.072;3.712;2023-05-15T01:16:54;55.92;;;46.75;;
22924;SDS011;11628;51.072;3.712;2023-05-15T01:19:19;55.05;;;45.65;;
22924;SDS011;11628;51.072;3.712;2023-05-15T01:27:44;57.80;;;47.67;;
22924;SDS011;11628;51.072;3.712;2023-05-15T01:30:21;58.38;;;47.75;;
22924;SDS011;11628;51.072;3.712;2023-05-15T01:35:39;61.20;;;49.63;;
22924;SDS011;11628;51.072;3.712;2023-05-15T01:38:26;59.13;;;49.05;;
22924;SDS011;11628;51.072;3.712;2023-05-15T01:43:40;64.57;;;52.65;;
22924;SDS011;11628;51.072;3.712;2023-05-15T01:46:11;62.28;;;50.38;;
22924;SDS011;11628;51.072;3.712;2023-05-15T01:48:40;62.55;;;48.55;;
22924;SDS011;11628;51.072;3.712;2023-05-15T01:51:08;62.90;;;50.30;;
22924;SDS011;11628;51.072;3.712;2023-05-15T01:53:35;60.35;;;49.13;;
22924;SDS011;11628;51.072;3.712;2023-05-15T01:56:02;60.17;;;49.05;;
22924;SDS011;11628;51.072;3.712;2023-05-15T01:58:30;59.03;;;47.65;;
22924;SDS011;11628;51.072;3.712;2023-05-15T02:00:57;60.58;;;49.55;;
22924;SDS011;11628;51.072;3.712;2023-05-15T02:03:25;65.03;;;51.22;;
22924;SDS011;11628;51.072;3.712;2023-05-15T02:05:51;66.38;;;52.78;;
22924;SDS011;11628;51.072;3.712;2023-05-15T02:08:20;64.45;;;49.97;;
22924;SDS011;11628;51.072;3.712;2023-05-15T02:10:46;66.95;;;51.83;;
22924;SDS011;11628;51.072;3.712;2023-05-15T02:13:13;70.57;;;53.33;;
22924;SDS011;11628;51.072;3.712;2023-05-15T02:15:39;70.00;;;53.95;;
22924;SDS011;11628;51.072;3.712;2023-05-15T02:18:05;63.13;;;51.33;;
22924;SDS011;11628;51.072;3.712;2023-05-15T02:20:31;64.95;;;49.95;;
22924;SDS011;11628;51.072;3.712;2023-05-15T02:22:56;71.28;;;50.35;;
22924;SDS011;11628;51.072;3.712;2023-05-15T02:25:24;64.82;;;50.72;;
22924;SDS011;11628;51.072;3.712;2023-05-15T02:28:08;62.13;;;49.65;;
22924;SDS011;11628;51.072;3.712;2023-05-15T02:31:00;65.43;;;47.95;;
22924;SDS011;11628;51.072;3.712;2023-05-15T02:38:38;67.22;;;47.75;;
22924;SDS011;11628;51.072;3.712;2023-05-15T02:41:10;57.88;;;46.47;;
22924;SDS011;11628;51.072;3.712;2023-05-15T02:43:37;60.75;;;46.80;;
22924;SDS011;11628;51.072;3.712;2023-05-15T02:46:04;62.13;;;47.25;;
22924;SDS011;11628;51.072;3.712;2023-05-15T02:48:31;67.25;;;46.88;;
22924;SDS011;11628;51.072;3.712;2023-05-15T02:50:58;62.55;;;46.70;;
22924;SDS011;11628;51.072;3.712;2023-05-15T02:53:24;57.60;;;45.95;;
22924;SDS011;11628;51.072;3.712;2023-05-15T02:55:50;61.33;;;44.90;;
22924;SDS011;11628;51.072;3.712;2023-05-15T02:58:16;59.20;;;45.58;;
22924;SDS011;11628;51.072;3.712;2023-05-15T03:00:42;58.83;;;45.20;;
22924;SDS011;11628;51.072;3.712;2023-05-15T03:03:07;64.63;;;45.58;;
22924;SDS011;11628;51.072;3.712;2023-05-15T03:05:33;63.25;;;45.95;;
22924;SDS011;11628;51.072;3.712;2023-05-15T03:07:59;71.70;;;44.65;;
22924;SDS011;11628;51.072;3.712;2023-05-15T03:10:25;64.95;;;45.45;;
22924;SDS011;11628;51.072;3.712;2023-05-15T03:12:50;70.95;;;46.55;;
22924;SDS011;11628;51.072;3.712;2023-05-15T03:15:16;71.78;;;48.28;;
22924;SDS011;11628;51.072;3.712;2023-05-15T03:17:42;71.63;;;47.42;;
22924;SDS011;11628;51.072;3.712;2023-05-15T03:20:08;69.15;;;48.00;;
22924;SDS011;11628;51.072;3.712;2023-05-15T03:22:35;76.90;;;48.17;;
22924;SDS011;11628;51.072;3.712;2023-05-15T03:25:01;71.88;;;46.10;;
22924;SDS011;11628;51.072;3.712;2023-05-15T03:27:27;71.13;;;48.00;;
22924;SDS011;11628;51.072;3.712;2023-05-15T03:29:52;71.07;;;46.95;;
22924;SDS011;11628;51.072;3.712;2023-05-15T03:32:18;76.88;;;47.92;;
22924;SDS011;11628;51.072;3.712;2023-05-15T03:34:44;79.85;;;49.97;;
22924;SDS011;11628;51.072;3.712;2023-05-15T03:37:09;79.72;;;47.42;;
22924;SDS011;11628;51.072;3.712;2023-05-15T03:39:35;79.50;;;49.38;;
22924;SDS011;11628;51.072;3.712;2023-05-15T03:42:01;75.07;;;48.25;;
22924;SDS011;11628;51.072;3.712;2023-05-15T03:44:27;77.03;;;50.03;;
22924;SDS011;11628;51.072;3.712;2023-05-15T03:46:53;82.68;;;50.25;;
22924;SDS011;11628;51.072;3.712;2023-05-15T03:49:19;79.93;;;48.40;;
22924;SDS011;11628;51.072;3.712;2023-05-15T03:51:45;81.70;;;50.20;;
22924;SDS011;11628;51.072;3.712;2023-05-15T03:54:10;82.60;;;52.20;;
22924;SDS011;11628;51.072;3.712;2023-05-15T03:56:36;80.30;;;49.20;;
22924;SDS011;11628;51.072;3.712;2023-05-15T03:59:02;76.88;;;47.88;;
22924;SDS011;11628;51.072;3.712;2023-05-15T04:01:28;87.60;;;51.33;;
22924;SDS011;11628;51.072;3.712;2023-05-15T04:03:54;87.55;;;51.35;;
22924;SDS011;11628;51.072;3.712;2023-05-15T04:06:19;91.38;;;51.75;;
22924;SDS011;11628;51.072;3.712;2023-05-15T04:08:46;87.38;;;50.97;;
22924;SDS011;11628;51.072;3.712;2023-05-15T04:11:13;88.20;;;49.67;;
22924;SDS011;11628;51.072;3.712;2023-05-15T04:13:38;86.68;;;50.28;;
22924;SDS011;11628;51.072;3.712;2023-05-15T04:16:04;83.03;;;48.65;;
22924;SDS011;11628;51.072;3.712;2023-05-15T04:18:31;79.18;;;48.97;;
22924;SDS011;11628;51.072;3.712;2023-05-15T04:20:56;81.88;;;48.80;;
22924;SDS011;11628;51.072;3.712;2023-05-15T04:23:22;82.80;;;47.45;;
22924;SDS011;11628;51.072;3.712;2023-05-15T04:25:48;81.38;;;48.25;;
22924;SDS011;11628;51.072;3.712;2023-05-15T04:28:13;86.05;;;47.72;;
22924;SDS011;11628;51.072;3.712;2023-05-15T04:30:39;87.18;;;47.58;;
22924;SDS011;11628;51.072;3.712;2023-05-15T04:33:05;86.00;;;48.15;;
22924;SDS011;11628;51.072;3.712;2023-05-15T04:35:31;92.00;;;49.10;;
22924;SDS011;11628;51.072;3.712;2023-05-15T04:37:57;87.50;;;49.17;;
22924;SDS011;11628;51.072;3.712;2023-05-15T04:40:22;93.22;;;51.50;;
22924;SDS011;11628;51.072;3.712;2023-05-15T04:42:48;98.45;;;52.17;;
22924;SDS011;11628;51.072;3.712;2023-05-15T04:45:14;101.20;;;52.95;;
22924;SDS011;11628;51.072;3.712;2023-05-15T04:47:40;110.03;;;54.60;;
22924;SDS011;11628;51.072;3.712;2023-05-15T04:50:05;108.18;;;54.35;;
22924;SDS011;11628;51.072;3.712;2023-05-15T04:52:31;109.10;;;53.63;;
22924;SDS011;11628;51.072;3.712;2023-05-15T04:54:57;114.97;;;56.40;;
22924;SDS011;11628;51.072;3.712;2023-05-15T04:57:23;108.63;;;52.92;;
22924;SDS011;11628;51.072;3.712;2023-05-15T04:59:49;115.78;;;56.70;;
22924;SDS011;11628;51.072;3.712;2023-05-15T05:02:15;117.07;;;56.83;;
22924;SDS011;11628;51.072;3.712;2023-05-15T05:04:45;118.75;;;55.47;;
22924;SDS011;11628;51.072;3.712;2023-05-15T05:07:11;130.70;;;58.72;;
22924;SDS011;11628;51.072;3.712;2023-05-15T05:09:37;131.45;;;58.42;;
22924;SDS011;11628;51.072;3.712;2023-05-15T05:12:04;127.22;;;57.30;;
22924;SDS011;11628;51.072;3.712;2023-05-15T05:14:33;130.88;;;58.28;;
22924;SDS011;11628;51.072;3.712;2023-05-15T05:16:59;131.43;;;59.45;;
22924;SDS011;11628;51.072;3.712;2023-05-15T05:19:25;130.90;;;60.03;;
22924;SDS011;11628;51.072;3.712;2023-05-15T05:21:52;137.88;;;59.58;;
22924;SDS011;11628;51.072;3.712;2023-05-15T05:24:18;140.27;;;61.38;;
22924;SDS011;11628;51.072;3.712;2023-05-15T05:26:44;136.98;;;62.70;;
22924;SDS011;11628;51.072;3.712;2023-05-15T05:29:10;141.85;;;64.55;;
22924;SDS011;11628;51.072;3.712;2023-05-15T05:31:35;144.27;;;63.03;;
22924;SDS011;11628;51.072;3.712;2023-05-15T05:34:01;140.95;;;62.60;;
22924;SDS011;11628;51.072;3.712;2023-05-15T05:36:27;143.02;;;63.35;;
22924;SDS011;11628;51.072;3.712;2023-05-15T05:38:52;142.20;;;60.97;;
22924;SDS011;11628;51.072;3.712;2023-05-15T05:41:18;145.82;;;63.90;;
22924;SDS011;11628;51.072;3.712;2023-05-15T05:43:45;148.13;;;63.88;;
22924;SDS011;11628;51.072;3.712;2023-05-15T05:46:11;153.65;;;66.43;;
22924;SDS011;11628;51.072;3.712;2023-05-15T05:48:37;149.48;;;64.32;;
22924;SDS011;11628;51.072;3.712;2023-05-15T05:51:02;147.27;;;64.43;;
22924;SDS011;11628;51.072;3.712;2023-05-15T05:53:28;137.60;;;62.25;;
22924;SDS011;11628;51.072;3.712;2023-05-15T05:55:54;148.90;;;65.38;;
22924;SDS011;11628;51.072;3.712;2023-05-15T05:58:20;140.98;;;64.68;;
22924;SDS011;11628;51.072;3.712;2023-05-15T06:00:46;147.90;;;65.85;;
22924;SDS011;11628;51.072;3.712;2023-05-15T06:03:12;142.40;;;61.75;;
22924;SDS011;11628;51.072;3.712;2023-05-15T06:05:38;137.70;;;63.15;;
22924;SDS011;11628;51.072;3.712;2023-05-15T06:08:04;134.00;;;60.35;;
22924;SDS011;11628;51.072;3.712;2023-05-15T06:10:30;137.13;;;61.55;;
22924;SDS011;11628;51.072;3.712;2023-05-15T06:12:56;137.02;;;61.55;;
22924;SDS011;11628;51.072;3.712;2023-05-15T06:15:22;128.05;;;59.70;;
22924;SDS011;11628;51.072;3.712;2023-05-15T06:17:47;124.85;;;59.88;;
22924;SDS011;11628;51.072;3.712;2023-05-15T06:20:13;128.27;;;60.50;;
22924;SDS011;11628;51.072;3.712;2023-05-15T06:22:39;128.10;;;62.03;;
22924;SDS011;11628;51.072;3.712;2023-05-15T06:25:05;126.10;;;59.58;;
22924;SDS011;11628;51.072;3.712;2023-05-15T06:27:32;127.28;;;60.08;;
22924;SDS011;11628;51.072;3.712;2023-05-15T06:29:58;122.95;;;57.15;;
22924;SDS011;11628;51.072;3.712;2023-05-15T06:32:24;125.60;;;61.65;;
22924;SDS011;11628;51.072;3.712;2023-05-15T06:34:50;123.40;;;57.50;;
22924;SDS011;11628;51.072;3.712;2023-05-15T06:37:16;117.93;;;57.38;;
22924;SDS011;11628;51.072;3.712;2023-05-15T06:39:41;112.68;;;54.78;;
22924;SDS011;11628;51.072;3.712;2023-05-15T06:42:07;110.97;;;55.60;;
22924;SDS011;11628;51.072;3.712;2023-05-15T06:44:33;113.70;;;55.63;;
22924;SDS011;11628;51.072;3.712;2023-05-15T06:46:59;114.63;;;56.58;;
22924;SDS011;11628;51.072;3.712;2023-05-15T06:49:26;117.80;;;57.28;;
22924;SDS011;11628;51.072;3.712;2023-05-15T06:51:52;115.10;;;55.70;;
22924;SDS011;11628;51.072;3.712;2023-05-15T06:54:18;120.43;;;57.42;;
22924;SDS011;11628;51.072;3.712;2023-05-15T06:56:44;119.28;;;58.47;;
22924;SDS011;11628;51.072;3.712;2023-05-15T06:59:10;112.15;;;54.25;;
22924;SDS011;11628;51.072;3.712;2023-05-15T07:01:36;108.22;;;55.08;;
22924;SDS011;11628;51.072;3.712;2023-05-15T07:04:02;102.47;;;53.63;;
22924;SDS011;11628;51.072;3.712;2023-05-15T07:06:28;106.85;;;53.10;;
22924;SDS011;11628;51.072;3.712;2023-05-15T07:08:56;101.65;;;49.63;;
22924;SDS011;11628;51.072;3.712;2023-05-15T07:11:22;95.80;;;47.83;;
22924;SDS011;11628;51.072;3.712;2023-05-15T07:13:47;94.63;;;48.92;;
22924;SDS011;11628;51.072;3.712;2023-05-15T07:16:13;99.78;;;50.50;;
22924;SDS011;11628;51.072;3.712;2023-05-15T07:18:39;100.10;;;51.33;;
22924;SDS011;11628;51.072;3.712;2023-05-15T07:21:04;105.78;;;49.95;;
22924;SDS011;11628;51.072;3.712;2023-05-15T07:23:30;106.05;;;51.92;;
22924;SDS011;11628;51.072;3.712;2023-05-15T07:25:56;105.60;;;52.92;;
22924;SDS011;11628;51.072;3.712;2023-05-15T07:28:22;108.07;;;52.97;;
22924;SDS011;11628;51.072;3.712;2023-05-15T07:30:47;105.32;;;52.97;;
22924;SDS011;11628;51.072;3.712;2023-05-15T07:33:13;110.07;;;52.50;;
22924;SDS011;11628;51.072;3.712;2023-05-15T07:35:39;103.82;;;52.65;;
22924;SDS011;11628;51.072;3.712;2023-05-15T07:38:04;98.68;;;50.72;;
22924;SDS011;11628;51.072;3.712;2023-05-15T07:40:32;95.20;;;50.60;;
22924;SDS011;11628;51.072;3.712;2023-05-15T07:42:57;93.15;;;49.13;;
22924;SDS011;11628;51.072;3.712;2023-05-15T07:45:23;94.50;;;48.92;;
22924;SDS011;11628;51.072;3.712;2023-05-15T07:47:49;87.28;;;47.90;;
22924;SDS011;11628;51.072;3.712;2023-05-15T07:50:15;87.68;;;48.72;;
22924;SDS011;11628;51.072;3.712;2023-05-15T07:52:41;86.80;;;46.08;;
22924;SDS011;11628;51.072;3.712;2023-05-15T07:55:11;83.70;;;45.65;;
22924;SDS011;11628;51.072;3.712;2023-05-15T07:57:37;82.47;;;45.83;;
22924;SDS011;11628;51.072;3.712;2023-05-15T08:00:04;80.78;;;45.33;;
22924;SDS011;11628;51.072;3.712;2023-05-15T08:02:35;83.35;;;44.60;;
22924;SDS011;11628;51.072;3.712;2023-05-15T08:05:01;70.40;;;41.00;;
22924;SDS011;11628;51.072;3.712;2023-05-15T08:07:27;69.10;;;40.10;;
22924;SDS011;11628;51.072;3.712;2023-05-15T08:09:55;67.43;;;40.70;;
22924;SDS011;11628;51.072;3.712;2023-05-15T08:12:20;71.28;;;42.60;;
22924;SDS011;11628;51.072;3.712;2023-05-15T08:14:49;70.50;;;42.03;;
22924;SDS011;11628;51.072;3.712;2023-05-15T08:17:16;69.00;;;42.75;;
22924;SDS011;11628;51.072;3.712;2023-05-15T08:19:42;61.28;;;40.30;;
22924;SDS011;11628;51.072;3.712;2023-05-15T08:22:08;65.65;;;41.58;;
22924;SDS011;11628;51.072;3.712;2023-05-15T08:24:33;56.67;;;37.67;;
22924;SDS011;11628;51.072;3.712;2023-05-15T08:26:59;58.80;;;39.28;;
22924;SDS011;11628;51.072;3.712;2023-05-15T08:29:25;58.38;;;39.15;;
22924;SDS011;11628;51.072;3.712;2023-05-15T08:31:51;65.47;;;41.70;;
22924;SDS011;11628;51.072;3.712;2023-05-15T08:34:17;61.10;;;41.22;;
22924;SDS011;11628;51.072;3.712;2023-05-15T08:36:43;60.80;;;42.15;;
22924;SDS011;11628;51.072;3.712;2023-05-15T08:39:09;97.95;;;45.72;;
22924;SDS011;11628;51.072;3.712;2023-05-15T08:42:20;66.40;;;43.47;;
22924;SDS011;11628;51.072;3.712;2023-05-15T08:44:32;69.93;;;46.45;;
22924;SDS011;11628;51.072;3.712;2023-05-15T08:46:58;72.13;;;45.67;;
22924;SDS011;11628;51.072;3.712;2023-05-15T08:51:50;70.78;;;45.03;;
22924;SDS011;11628;51.072;3.712;2023-05-15T08:54:17;66.53;;;44.97;;
22924;SDS011;11628;51.072;3.712;2023-05-15T08:56:43;68.68;;;45.92;;
22924;SDS011;11628;51.072;3.712;2023-05-15T08:59:09;71.70;;;46.92;;
22924;SDS011;11628;51.072;3.712;2023-05-15T09:01:35;65.15;;;45.33;;
22924;SDS011;11628;51.072;3.712;2023-05-15T09:04:01;65.22;;;44.47;;
22924;SDS011;11628;51.072;3.712;2023-05-15T09:06:28;64.93;;;44.35;;
22924;SDS011;11628;51.072;3.712;2023-05-15T09:08:54;65.68;;;43.22;;
22924;SDS011;11628;51.072;3.712;2023-05-15T09:11:22;67.00;;;44.40;;
22924;SDS011;11628;51.072;3.712;2023-05-15T09:13:49;65.20;;;44.63;;
22924;SDS011;11628;51.072;3.712;2023-05-15T09:16:15;63.25;;;43.67;;
22924;SDS011;11628;51.072;3.712;2023-05-15T09:18:40;67.97;;;46.47;;
22924;SDS011;11628;51.072;3.712;2023-05-15T09:21:23;68.15;;;44.45;;
22924;SDS011;11628;51.072;3.712;2023-05-15T09:23:51;60.40;;;40.90;;
22924;SDS011;11628;51.072;3.712;2023-05-15T09:26:17;63.75;;;42.80;;
22924;SDS011;11628;51.072;3.712;2023-05-15T09:28:43;64.47;;;41.97;;
22924;SDS011;11628;51.072;3.712;2023-05-15T09:31:08;70.88;;;47.78;;
22924;SDS011;11628;51.072;3.712;2023-05-15T09:33:36;56.60;;;38.30;;
22924;SDS011;11628;51.072;3.712;2023-05-15T09:36:04;56.05;;;39.60;;
22924;SDS011;11628;51.072;3.712;2023-05-15T09:38:31;57.20;;;40.45;;
22924;SDS011;11628;51.072;3.712;2023-05-15T09:41:04;56.38;;;39.58;;
22924;SDS011;11628;51.072;3.712;2023-05-15T09:43:34;57.40;;;38.95;;
22924;SDS011;11628;51.072;3.712;2023-05-15T09:46:01;51.80;;;37.83;;
22924;SDS011;11628;51.072;3.712;2023-05-15T09:48:28;52.90;;;36.92;;
22924;SDS011;11628;51.072;3.712;2023-05-15T09:50:54;51.33;;;36.17;;
22924;SDS011;11628;51.072;3.712;2023-05-15T09:53:21;49.45;;;35.72;;
22924;SDS011;11628;51.072;3.712;2023-05-15T09:55:48;50.22;;;35.83;;
22924;SDS011;11628;51.072;3.712;2023-05-15T09:58:14;53.50;;;38.22;;
22924;SDS011;11628;51.072;3.712;2023-05-15T10:00:42;52.03;;;38.42;;
22924;SDS011;11628;51.072;3.712;2023-05-15T10:03:09;54.65;;;38.60;;
22924;SDS011;11628;51.072;3.712;2023-05-15T10:05:35;48.58;;;37.65;;
22924;SDS011;11628;51.072;3.712;2023-05-15T10:08:02;51.13;;;36.55;;
22924;SDS011;11628;51.072;3.712;2023-05-15T10:10:28;48.55;;;36.83;;
22924;SDS011;11628;51.072;3.712;2023-05-15T10:12:55;51.45;;;36.80;;
22924;SDS011;11628;51.072;3.712;2023-05-15T10:15:24;49.58;;;35.58;;
22924;SDS011;11628;51.072;3.712;2023-05-15T10:17:50;53.05;;;36.80;;
22924;SDS011;11628;51.072;3.712;2023-05-15T10:20:17;49.78;;;35.40;;
22924;SDS011;11628;51.072;3.712;2023-05-15T10:22:48;54.03;;;37.85;;
22924;SDS011;11628;51.072;3.712;2023-05-15T10:28:05;52.75;;;36.42;;
22924;SDS011;11628;51.072;3.712;2023-05-15T10:30:34;56.97;;;38.60;;
22924;SDS011;11628;51.072;3.712;2023-05-15T10:33:01;57.63;;;36.40;;
22924;SDS011;11628;51.072;3.712;2023-05-15T10:35:29;57.63;;;37.28;;
22924;SDS011;11628;51.072;3.712;2023-05-15T10:37:55;57.05;;;35.05;;
22924;SDS011;11628;51.072;3.712;2023-05-15T10:40:21;56.40;;;37.47;;
22924;SDS011;11628;51.072;3.712;2023-05-15T10:42:48;57.28;;;36.38;;
22924;SDS011;11628;51.072;3.712;2023-05-15T10:45:14;58.17;;;35.67;;
22924;SDS011;11628;51.072;3.712;2023-05-15T10:47:41;54.63;;;35.72;;
22924;SDS011;11628;51.072;3.712;2023-05-15T10:50:08;54.75;;;34.53;;
22924;SDS011;11628;51.072;3.712;2023-05-15T10:52:35;51.60;;;33.97;;
22924;SDS011;11628;51.072;3.712;2023-05-15T10:55:05;51.17;;;32.00;;
22924;SDS011;11628;51.072;3.712;2023-05-15T10:57:31;49.47;;;30.75;;
22924;SDS011;11628;51.072;3.712;2023-05-15T10:59:57;54.38;;;32.38;;
22924;SDS011;11628;51.072;3.712;2023-05-15T11:02:24;52.38;;;31.33;;
22924;SDS011;11628;51.072;3.712;2023-05-15T11:05:01;56.97;;;33.20;;
22924;SDS011;11628;51.072;3.712;2023-05-15T11:07:30;58.05;;;33.28;;
22924;SDS011;11628;51.072;3.712;2023-05-15T11:09:56;53.60;;;31.05;;
22924;SDS011;11628;51.072;3.712;2023-05-15T11:12:22;51.80;;;28.80;;
22924;SDS011;11628;51.072;3.712;2023-05-15T11:17:21;19.35;;;10.23;;
22924;SDS011;11628;51.072;3.712;2023-05-15T11:27:19;5.78;;;3.17;;
22924;SDS011;11628;51.072;3.712;2023-05-15T11:30:09;5.40;;;2.50;;
22924;SDS011;11628;51.072;3.712;2023-05-15T11:35:21;6.28;;;1.92;;
22924;SDS011;11628;51.072;3.712;2023-05-15T11:43:26;5.95;;;2.10;;
22924;SDS011;11628;51.072;3.712;2023-05-15T11:45:56;7.10;;;1.77;;
22924;SDS011;11628;51.072;3.712;2023-05-15T11:48:32;6.50;;;2.20;;
22924;SDS011;11628;51.072;3.712;2023-05-15T11:51:02;6.88;;;2.47;;
22924;SDS011;11628;51.072;3.712;2023-05-15T11:53:29;8.85;;;3.33;;
22924;SDS011;11628;51.072;3.712;2023-05-15T11:55:56;9.48;;;3.00;;
22924;SDS011;11628;51.072;3.712;2023-05-15T11:58:23;11.73;;;3.53;;
22924;SDS011;11628;51.072;3.712;2023-05-15T12:00:50;12.00;;;3.35;;
22924;SDS011;11628;51.072;3.712;2023-05-15T12:03:30;10.43;;;3.28;;
22924;SDS011;11628;51.072;3.712;2023-05-15T12:05:57;13.13;;;3.33;;
22924;SDS011;11628;51.072;3.712;2023-05-15T12:08:29;12.32;;;3.08;;
22924;SDS011;11628;51.072;3.712;2023-05-15T12:13:27;9.45;;;3.28;;
22924;SDS011;11628;51.072;3.712;2023-05-15T12:15:54;11.38;;;4.00;;
22924;SDS011;11628;51.072;3.712;2023-05-15T12:18:20;12.35;;;4.75;;
22924;SDS011;11628;51.072;3.712;2023-05-15T12:20:46;8.45;;;3.60;;
22924;SDS011;11628;51.072;3.712;2023-05-15T12:23:14;11.90;;;3.70;;
22924;SDS011;11628;51.072;3.712;2023-05-15T12:25:40;12.60;;;5.28;;
22924;SDS011;11628;51.072;3.712;2023-05-15T12:28:10;13.43;;;4.28;;
22924;SDS011;11628;51.072;3.712;2023-05-15T12:30:36;8.98;;;3.03;;
22924;SDS011;11628;51.072;3.712;2023-05-15T12:33:04;10.27;;;3.13;;
22924;SDS011;11628;51.072;3.712;2023-05-15T12:35:34;6.95;;;2.72;;
22924;SDS011;11628;51.072;3.712;2023-05-15T12:38:04;9.15;;;3.15;;
22924;SDS011;11628;51.072;3.712;2023-05-15T12:40:34;9.18;;;3.13;;
22924;SDS011;11628;51.072;3.712;2023-05-15T12:43:04;7.40;;;3.05;;
22924;SDS011;11628;51.072;3.712;2023-05-15T12:45:31;8.63;;;3.55;;
22924;SDS011;11628;51.072;3.712;2023-05-15T12:47:59;7.45;;;3.10;;
22924;SDS011;11628;51.072;3.712;2023-05-15T12:50:25;9.13;;;3.35;;
22924;SDS011;11628;51.072;3.712;2023-05-15T12:52:55;11.82;;;5.03;;
22924;SDS011;11628;51.072;3.712;2023-05-15T12:55:28;11.02;;;4.15;;
22924;SDS011;11628;51.072;3.712;2023-05-15T13:00:30;10.77;;;4.72;;
22924;SDS011;11628;51.072;3.712;2023-05-15T13:02:57;8.82;;;3.83;;
22924;SDS011;11628;51.072;3.712;2023-05-15T13:05:24;12.93;;;4.15;;
22924;SDS011;11628;51.072;3.712;2023-05-15T13:07:50;10.63;;;3.58;;
22924;SDS011;11628;51.072;3.712;2023-05-15T13:10:19;10.15;;;3.28;;
22924;SDS011;11628;51.072;3.712;2023-05-15T13:12:50;11.43;;;3.65;;
22924;SDS011;11628;51.072;3.712;2023-05-15T13:15:21;7.68;;;3.50;;
22924;SDS011;11628;51.072;3.712;2023-05-15T13:17:56;7.75;;;3.38;;
22924;SDS011;11628;51.072;3.712;2023-05-15T13:20:24;11.88;;;3.70;;
22924;SDS011;11628;51.072;3.712;2023-05-15T13:22:51;13.23;;;4.40;;
22924;SDS011;11628;51.072;3.712;2023-05-15T13:25:17;73.13;;;52.58;;
22924;SDS011;11628;51.072;3.712;2023-05-15T13:27:44;8.82;;;4.20;;
22924;SDS011;11628;51.072;3.712;2023-05-15T13:30:11;12.82;;;4.05;;
22924;SDS011;11628;51.072;3.712;2023-05-15T13:32:37;10.07;;;3.30;;
22924;SDS011;11628;51.072;3.712;2023-05-15T13:35:03;12.95;;;3.72;;
22924;SDS011;11628;51.072;3.712;2023-05-15T13:37:29;9.75;;;3.75;;
22924;SDS011;11628;51.072;3.712;2023-05-15T13:39:55;9.05;;;3.50;;
22924;SDS011;11628;51.072;3.712;2023-05-15T13:42:21;7.30;;;3.50;;
22924;SDS011;11628;51.072;3.712;2023-05-15T13:44:48;9.40;;;3.92;;
22924;SDS011;11628;51.072;3.712;2023-05-15T13:47:14;7.43;;;3.60;;
22924;SDS011;11628;51.072;3.712;2023-05-15T13:49:40;11.27;;;3.60;;
22924;SDS011;11628;51.072;3.712;2023-05-15T13:52:05;9.82;;;4.18;;
22924;SDS011;11628;51.072;3.712;2023-05-15T13:54:31;10.55;;;3.85;;
22924;SDS011;11628;51.072;3.712;2023-05-15T13:56:57;9.45;;;4.03;;
22924;SDS011;11628;51.072;3.712;2023-05-15T13:59:23;8.82;;;3.95;;
22924;SDS011;11628;51.072;3.712;2023-05-15T14:01:49;22.75;;;11.63;;
22924;SDS011;11628;51.072;3.712;2023-05-15T14:04:15;11.23;;;4.28;;
22924;SDS011;11628;51.072;3.712;2023-05-15T14:06:41;10.02;;;3.30;;
22924;SDS011;11628;51.072;3.712;2023-05-15T14:09:06;13.18;;;4.18;;
22924;SDS011;11628;51.072;3.712;2023-05-15T14:11:32;12.38;;;4.95;;
22924;SDS011;11628;51.072;3.712;2023-05-15T14:13:59;13.20;;;5.03;;
22924;SDS011;11628;51.072;3.712;2023-05-15T14:16:24;14.68;;;4.53;;
22924;SDS011;11628;51.072;3.712;2023-05-15T14:18:50;12.73;;;4.78;;
22924;SDS011;11628;51.072;3.712;2023-05-15T14:21:16;11.38;;;4.25;;
22924;SDS011;11628;51.072;3.712;2023-05-15T14:23:41;10.23;;;4.28;;
22924;SDS011;11628;51.072;3.712;2023-05-15T14:26:07;11.43;;;4.43;;
22924;SDS011;11628;51.072;3.712;2023-05-15T14:28:33;13.07;;;4.75;;
22924;SDS011;11628;51.072;3.712;2023-05-15T14:30:58;11.95;;;4.38;;
22924;SDS011;11628;51.072;3.712;2023-05-15T14:33:25;13.77;;;5.07;;
22924;SDS011;11628;51.072;3.712;2023-05-15T14:35:51;12.93;;;4.57;;
22924;SDS011;11628;51.072;3.712;2023-05-15T14:38:17;10.48;;;4.07;;
22924;SDS011;11628;51.072;3.712;2023-05-15T14:40:43;13.85;;;3.97;;
22924;SDS011;11628;51.072;3.712;2023-05-15T14:43:09;12.82;;;3.78;;
22924;SDS011;11628;51.072;3.712;2023-05-15T14:45:34;12.63;;;4.30;;
22924;SDS011;11628;51.072;3.712;2023-05-15T14:48:00;9.95;;;4.32;;
22924;SDS011;11628;51.072;3.712;2023-05-15T14:50:26;20.05;;;7.38;;
22924;SDS011;11628;51.072;3.712;2023-05-15T14:52:52;16.63;;;6.35;;
22924;SDS011;11628;51.072;3.712;2023-05-15T14:55:18;20.08;;;7.32;;
22924;SDS011;11628;51.072;3.712;2023-05-15T14:57:47;17.13;;;6.15;;
22924;SDS011;11628;51.072;3.712;2023-05-15T15:00:13;14.15;;;5.10;;
22924;SDS011;11628;51.072;3.712;2023-05-15T15:02:40;14.77;;;6.15;;
22924;SDS011;11628;51.072;3.712;2023-05-15T15:05:06;14.48;;;5.00;;
22924;SDS011;11628;51.072;3.712;2023-05-15T15:07:57;32.47;;;17.10;;